createdAt,value
2019-03-30T00:01:02.850Z,87.50
2019-03-30T00:03:35.227Z,89.10
2019-03-30T00:06:08.129Z,88.37
2019-03-30T00:08:40.673Z,90.40
2019-03-30T00:11:12.070Z,85.73
2019-03-30T00:13:46.290Z,88.10
2019-03-30T00:16:17.457Z,87.20
2019-03-30T00:18:50.680Z,78.93
2019-03-30T00:21:25.556Z,74.47
2019-03-30T00:23:56.519Z,70.70
2019-03-30T00:26:29.563Z,72.53
2019-03-30T00:29:04.372Z,93.23
2019-03-30T00:31:36.659Z,96.63
2019-03-30T00:34:08.967Z,70.77
2019-03-30T00:36:59.144Z,64.75
2019-03-30T00:39:31.877Z,56.87
2019-03-30T00:42:04.414Z,60.03
2019-03-30T00:44:36.841Z,63.90
2019-03-30T00:47:27.421Z,54.23
2019-03-30T00:49:58.408Z,63.90
2019-03-30T00:52:31.057Z,63.27
2019-03-30T00:55:02.082Z,74.03
2019-03-30T00:57:33.399Z,71.43
2019-03-30T01:00:05.859Z,93.50
2019-03-30T01:02:35.735Z,96.03
2019-03-30T01:05:12.803Z,128.00
2019-03-30T01:07:47.152Z,107.53
2019-03-30T01:10:39.204Z,100.93
2019-03-30T01:13:13.017Z,95.03
2019-03-30T01:15:44.920Z,90.83
2019-03-30T01:18:16.450Z,83.63
2019-03-30T01:20:47.491Z,84.30
2019-03-30T01:23:19.893Z,81.30
2019-03-30T01:25:52.293Z,76.13
2019-03-30T01:28:24.218Z,75.63
2019-03-30T01:30:58.224Z,76.70
2019-03-30T01:33:30.152Z,71.10
2019-03-30T01:36:00.246Z,85.80
2019-03-30T01:38:33.113Z,79.93
2019-03-30T01:41:05.695Z,74.57
2019-03-30T01:43:36.682Z,88.43
2019-03-30T01:46:07.924Z,90.30
2019-03-30T01:48:39.748Z,85.53
2019-03-30T01:51:12.270Z,79.57
2019-03-30T01:53:44.602Z,89.97
2019-03-30T01:56:14.670Z,91.90
2019-03-30T01:58:44.840Z,102.83
2019-03-30T02:01:15.954Z,96.70
2019-03-30T02:03:47.138Z,104.77
2019-03-30T02:06:20.419Z,113.50
2019-03-30T02:08:52.890Z,104.80
2019-03-30T02:11:22.982Z,96.83
2019-03-30T02:13:56.743Z,102.77
2019-03-30T02:16:27.807Z,102.73
2019-03-30T02:18:57.737Z,104.33
2019-03-30T02:21:28.753Z,95.77
2019-03-30T02:23:58.712Z,85.03
2019-03-30T02:26:31.089Z,86.33
2019-03-30T02:29:04.385Z,87.60
2019-03-30T02:31:36.375Z,74.43
2019-03-30T02:34:07.329Z,75.10
2019-03-30T02:36:38.811Z,82.53
2019-03-30T02:39:11.555Z,85.63
2019-03-30T02:41:42.424Z,78.77
2019-03-30T02:44:13.514Z,104.97
2019-03-30T02:46:44.470Z,85.00
2019-03-30T02:49:16.785Z,101.65
2019-03-30T02:51:48.184Z,95.07
2019-03-30T02:54:19.382Z,83.43
2019-03-30T02:56:51.514Z,94.05
2019-03-30T02:59:23.329Z,83.67
2019-03-30T03:02:10.024Z,87.60
2019-03-30T03:04:42.470Z,86.70
2019-03-30T03:07:15.473Z,85.90
2019-03-30T03:09:50.743Z,85.60
2019-03-30T03:12:24.177Z,87.40
2019-03-30T03:14:55.424Z,84.33
2019-03-30T03:17:26.920Z,89.60
2019-03-30T03:19:57.794Z,112.37
2019-03-30T03:22:29.839Z,105.17
2019-03-30T03:25:01.252Z,95.60
2019-03-30T03:27:31.452Z,87.90
2019-03-30T03:30:00.941Z,88.23
2019-03-30T03:32:33.565Z,82.97
2019-03-30T03:35:06.420Z,91.03
2019-03-30T03:37:46.532Z,79.43
2019-03-30T03:40:20.186Z,84.03
2019-03-30T03:42:55.148Z,79.07
2019-03-30T03:45:28.380Z,77.00
2019-03-30T03:48:04.310Z,73.93
2019-03-30T03:50:42.788Z,77.30
2019-03-30T03:53:20.430Z,86.07
2019-03-30T03:55:55.142Z,81.10
2019-03-30T03:58:29.976Z,80.35
2019-03-30T04:01:03.682Z,81.80
2019-03-30T04:03:50.793Z,83.00
2019-03-30T04:06:28.888Z,80.80
2019-03-30T04:09:01.784Z,77.20
2019-03-30T04:11:34.842Z,86.93
2019-03-30T04:14:28.412Z,88.17
2019-03-30T04:17:00.029Z,91.03
2019-03-30T04:22:18.856Z,79.20
2019-03-30T04:24:52.597Z,79.57
2019-03-30T04:27:30.529Z,79.83
2019-03-30T04:30:23.302Z,77.27
2019-03-30T04:32:59.891Z,84.83
2019-03-30T04:35:31.247Z,86.30
2019-03-30T04:38:04.475Z,89.83
2019-03-30T04:40:41.368Z,85.00
2019-03-30T04:43:15.915Z,82.37
2019-03-30T04:45:50.304Z,84.67
2019-03-30T04:48:23.372Z,81.67
2019-03-30T04:50:55.774Z,85.07
2019-03-30T04:53:27.123Z,83.13
2019-03-30T04:55:58.025Z,85.20
2019-03-30T04:58:28.195Z,81.73
2019-03-30T05:01:02.847Z,78.93
2019-03-30T05:03:37.054Z,89.30
2019-03-30T05:06:08.175Z,86.63
2019-03-30T05:08:39.374Z,85.77
2019-03-30T05:11:13.848Z,81.00
2019-03-30T05:13:47.333Z,84.00
2019-03-30T05:16:21.174Z,76.53
2019-03-30T05:18:53.106Z,71.13
2019-03-30T05:21:27.745Z,64.87
2019-03-30T05:23:59.359Z,69.83
2019-03-30T05:26:35.934Z,73.80
2019-03-30T05:29:08.634Z,71.28
2019-03-30T05:31:41.803Z,70.10
2019-03-30T05:34:19.163Z,64.82
2019-03-30T05:36:52.128Z,71.60
2019-03-30T05:39:22.394Z,73.43
2019-03-30T05:41:56.305Z,82.87
2019-03-30T05:44:29.319Z,82.33
2019-03-30T05:47:01.274Z,74.27
2019-03-30T05:49:35.880Z,72.57
2019-03-30T05:52:09.139Z,71.73
2019-03-30T05:54:42.265Z,68.80
2019-03-30T05:57:16.755Z,71.13
2019-03-30T05:59:51.779Z,66.83
2019-03-30T06:02:23.082Z,72.77
2019-03-30T06:04:54.076Z,75.80
2019-03-30T06:07:25.354Z,70.22
2019-03-30T06:09:57.886Z,74.73
2019-03-30T06:12:30.628Z,60.10
2019-03-30T06:15:01.827Z,63.03
2019-03-30T06:17:32.976Z,58.53
2019-03-30T06:20:05.695Z,55.77
2019-03-30T06:22:40.566Z,54.90
2019-03-30T06:25:10.214Z,53.87
2019-03-30T06:27:40.772Z,55.10
2019-03-30T06:30:25.112Z,49.42
2019-03-30T06:32:55.589Z,52.70
2019-03-30T06:35:28.236Z,63.93
2019-03-30T06:37:59.211Z,65.27
2019-03-30T06:40:30.548Z,66.73
2019-03-30T06:43:01.897Z,62.63
2019-03-30T06:45:35.959Z,66.10
2019-03-30T06:48:06.445Z,63.17
2019-03-30T06:50:38.055Z,54.73
2019-03-30T06:53:10.859Z,48.93
2019-03-30T06:55:42.103Z,43.60
2019-03-30T06:58:15.265Z,42.08
2019-03-30T07:00:49.167Z,39.23
2019-03-30T07:03:21.394Z,36.23
2019-03-30T07:05:51.281Z,44.60
2019-03-30T07:08:23.555Z,35.90
2019-03-30T07:10:57.150Z,46.30
2019-03-30T07:13:32.370Z,44.33
2019-03-30T07:16:06.395Z,42.17
2019-03-30T07:18:40.361Z,32.43
2019-03-30T07:21:12.414Z,39.73
2019-03-30T07:23:46.232Z,33.13
2019-03-30T07:26:17.766Z,31.60
2019-03-30T07:28:50.719Z,31.63
2019-03-30T07:31:23.099Z,30.57
2019-03-30T07:33:59.114Z,32.37
2019-03-30T07:36:30.699Z,31.30
2019-03-30T07:39:05.141Z,30.60
2019-03-30T07:41:35.305Z,33.00
2019-03-30T07:44:07.374Z,30.53
2019-03-30T07:46:38.822Z,30.83
2019-03-30T07:49:11.147Z,37.70
2019-03-30T07:51:45.006Z,35.63
2019-03-30T07:54:17.121Z,29.23
2019-03-30T07:57:03.866Z,27.00
2019-03-30T07:59:21.670Z,33.93
2019-03-30T08:01:52.834Z,33.03
2019-03-30T08:04:24.172Z,26.60
2019-03-30T08:06:57.146Z,24.60
2019-03-30T08:09:27.378Z,25.53
2019-03-30T08:11:57.263Z,30.47
2019-03-30T08:14:27.442Z,28.87
2019-03-30T08:17:01.144Z,30.83
2019-03-30T08:19:34.163Z,29.60
2019-03-30T08:22:04.085Z,27.70
2019-03-30T08:24:34.959Z,26.30
2019-03-30T08:27:04.799Z,22.00
2019-03-30T08:29:37.863Z,26.03
2019-03-30T08:32:08.834Z,22.70
2019-03-30T08:34:58.153Z,20.83
2019-03-30T08:37:29.298Z,19.80
2019-03-30T08:40:04.125Z,30.03
2019-03-30T08:42:35.283Z,20.43
2019-03-30T08:45:11.026Z,19.20
2019-03-30T08:47:43.343Z,19.00
2019-03-30T08:50:14.509Z,25.63
2019-03-30T08:52:47.267Z,19.63
2019-03-30T08:55:17.260Z,18.33
2019-03-30T08:57:51.459Z,20.00
2019-03-30T09:00:29.326Z,56.27
2019-03-30T09:03:01.809Z,28.80
2019-03-30T09:05:33.012Z,20.90
2019-03-30T09:08:24.352Z,18.93
2019-03-30T09:10:59.121Z,23.50
2019-03-30T09:13:31.964Z,18.73
2019-03-30T09:16:06.889Z,25.37
2019-03-30T09:18:43.077Z,26.07
2019-03-30T09:21:18.117Z,26.87
2019-03-30T09:23:52.349Z,19.13
2019-03-30T09:26:28.565Z,44.73
2019-03-30T09:28:58.638Z,18.33
2019-03-30T09:31:29.893Z,16.33
2019-03-30T09:34:03.002Z,14.10
2019-03-30T09:36:36.619Z,20.30
2019-03-30T09:39:10.212Z,17.57
2019-03-30T09:41:45.079Z,13.43
2019-03-30T09:44:17.880Z,13.47
2019-03-30T09:46:47.758Z,14.10
2019-03-30T09:49:17.684Z,17.90
2019-03-30T09:51:48.340Z,15.07
2019-03-30T09:54:24.079Z,18.33
2019-03-30T09:56:53.522Z,14.63
2019-03-30T09:59:25.646Z,29.82
2019-03-30T10:01:57.556Z,14.53
2019-03-30T10:04:27.658Z,14.90
2019-03-30T10:06:58.959Z,15.07
2019-03-30T10:09:49.354Z,14.30
2019-03-30T10:12:20.893Z,14.55
2019-03-30T10:14:55.212Z,16.17
2019-03-30T10:17:29.866Z,17.10
2019-03-30T10:20:04.599Z,13.77
2019-03-30T10:22:34.439Z,14.33
2019-03-30T10:25:04.765Z,13.93
2019-03-30T10:27:34.096Z,12.43
2019-03-30T10:30:07.650Z,13.70
2019-03-30T10:32:42.128Z,31.00
2019-03-30T10:35:16.196Z,14.10
2019-03-30T10:40:21.021Z,13.60
2019-03-30T10:42:53.564Z,12.20
2019-03-30T10:45:28.464Z,12.35
2019-03-30T10:48:01.356Z,142.10
2019-03-30T10:50:31.365Z,17.03
2019-03-30T10:53:01.616Z,10.87
2019-03-30T10:55:52.500Z,10.50
2019-03-30T10:58:26.451Z,23.10
2019-03-30T11:00:59.942Z,9.93
2019-03-30T11:03:33.882Z,10.53
2019-03-30T11:06:08.531Z,10.27
2019-03-30T11:08:44.442Z,8.03
2019-03-30T11:11:17.317Z,9.08
2019-03-30T11:13:47.328Z,7.17
2019-03-30T11:16:21.308Z,7.20
2019-03-30T11:18:53.278Z,8.17
2019-03-30T11:21:29.092Z,8.67
2019-03-30T11:24:06.516Z,8.67
2019-03-30T11:26:38.044Z,8.33
2019-03-30T11:29:12.538Z,10.27
2019-03-30T11:31:46.399Z,8.70
2019-03-30T11:34:20.242Z,8.13
2019-03-30T11:36:54.004Z,39.17
2019-03-30T11:39:28.840Z,12.93
2019-03-30T11:42:03.619Z,17.07
2019-03-30T11:44:36.117Z,12.73
2019-03-30T11:47:11.726Z,11.93
2019-03-30T11:49:45.337Z,16.17
2019-03-30T11:52:17.744Z,17.67
2019-03-30T11:54:50.055Z,14.53
2019-03-30T11:57:23.057Z,13.72
2019-03-30T11:59:55.525Z,12.60
2019-03-30T12:02:28.595Z,15.65
2019-03-30T12:05:00.367Z,12.75
2019-03-30T12:07:35.513Z,10.95
2019-03-30T12:10:11.333Z,12.82
2019-03-30T12:12:43.578Z,12.43
2019-03-30T12:15:17.590Z,12.70
2019-03-30T12:17:50.228Z,14.50
2019-03-30T12:20:21.385Z,22.33
2019-03-30T12:22:55.369Z,14.73
2019-03-30T12:25:35.993Z,12.60
2019-03-30T12:28:05.752Z,12.98
2019-03-30T12:30:35.781Z,22.07
2019-03-30T12:33:08.955Z,13.18
2019-03-30T12:35:42.993Z,13.22
2019-03-30T12:38:17.200Z,19.53
2019-03-30T12:40:52.245Z,14.03
2019-03-30T12:43:24.811Z,24.37
2019-03-30T12:45:57.607Z,13.68
2019-03-30T12:48:29.237Z,13.62
2019-03-30T12:51:02.114Z,14.63
2019-03-30T12:53:34.694Z,14.75
2019-03-30T12:56:09.110Z,10.50
2019-03-30T12:58:43.931Z,11.22
2019-03-30T13:01:16.473Z,10.67
2019-03-30T13:03:50.430Z,11.08
2019-03-30T13:06:21.361Z,17.75
2019-03-30T13:09:01.335Z,12.33
2019-03-30T13:11:34.202Z,18.60
2019-03-30T13:14:05.173Z,18.00
2019-03-30T13:16:37.115Z,11.57
2019-03-30T13:19:09.546Z,9.68
2019-03-30T13:21:52.048Z,9.05
2019-03-30T13:24:18.080Z,9.50
2019-03-30T13:26:49.147Z,9.43
2019-03-30T13:29:21.455Z,18.57
2019-03-30T13:31:51.415Z,30.15
2019-03-30T13:34:24.315Z,14.30
2019-03-30T13:36:57.717Z,10.23
2019-03-30T13:39:27.633Z,9.88
2019-03-30T13:41:58.645Z,11.50
2019-03-30T13:44:29.832Z,8.93
2019-03-30T13:47:02.825Z,10.10
2019-03-30T13:49:33.872Z,10.70
2019-03-30T13:52:05.740Z,19.90
2019-03-30T13:54:38.668Z,22.27
2019-03-30T13:57:10.158Z,11.93
2019-03-30T13:59:44.903Z,15.17
2019-03-30T14:02:17.147Z,15.60
2019-03-30T14:04:52.566Z,12.37
2019-03-30T14:07:22.842Z,11.00
2019-03-30T14:09:52.756Z,21.53
2019-03-30T14:12:23.874Z,11.87
2019-03-30T14:14:58.857Z,13.87
2019-03-30T14:17:32.558Z,23.20
2019-03-30T14:20:06.560Z,12.07
2019-03-30T14:22:40.595Z,17.43
2019-03-30T14:25:13.496Z,13.70
2019-03-30T14:27:48.496Z,18.90
2019-03-30T14:30:37.781Z,13.20
2019-03-30T14:33:10.459Z,12.50
2019-03-30T14:35:43.773Z,13.13
2019-03-30T14:38:14.743Z,16.48
2019-03-30T14:40:46.872Z,13.57
2019-03-30T14:43:19.437Z,15.10
2019-03-30T14:45:54.869Z,12.53
2019-03-30T14:48:26.261Z,11.30
2019-03-30T14:50:57.912Z,11.53
2019-03-30T14:53:27.919Z,12.40
2019-03-30T14:56:00.462Z,10.37
2019-03-30T14:58:31.505Z,11.27
2019-03-30T15:01:03.284Z,12.10
2019-03-30T15:03:34.724Z,13.10
2019-03-30T15:06:10.057Z,12.77
2019-03-30T15:08:41.660Z,11.50
2019-03-30T15:11:12.592Z,12.10
2019-03-30T15:13:42.496Z,13.47
2019-03-30T15:16:17.524Z,13.97
2019-03-30T15:18:50.712Z,12.80
2019-03-30T15:21:22.089Z,11.90
2019-03-30T15:23:53.907Z,12.30
2019-03-30T15:26:23.243Z,13.20
2019-03-30T15:28:54.932Z,13.73
2019-03-30T15:31:27.540Z,15.50
2019-03-30T15:34:02.806Z,17.27
2019-03-30T15:36:37.698Z,17.33
2019-03-30T15:39:09.887Z,22.07
2019-03-30T15:41:40.320Z,14.20
2019-03-30T15:44:10.896Z,14.77
2019-03-30T15:46:42.445Z,14.83
2019-03-30T15:49:15.099Z,16.47
2019-03-30T15:51:46.167Z,15.70
2019-03-30T15:54:19.546Z,15.40
2019-03-30T15:56:50.825Z,15.90
2019-03-30T15:59:24.036Z,18.02
2019-03-30T16:01:56.698Z,17.53
2019-03-30T16:04:26.101Z,28.33
2019-03-30T16:07:01.134Z,24.50
2019-03-30T16:09:35.737Z,19.17
2019-03-30T16:12:07.007Z,23.37
2019-03-30T16:14:38.617Z,19.97
2019-03-30T16:17:09.481Z,20.80
2019-03-30T16:19:45.202Z,21.43
2019-03-30T16:22:17.950Z,30.77
2019-03-30T16:24:48.995Z,23.93
2019-03-30T16:27:28.673Z,98.63
2019-03-30T16:29:50.917Z,72.90
2019-03-30T16:32:24.297Z,31.60
2019-03-30T16:34:55.506Z,32.27
2019-03-30T16:37:26.448Z,33.83
2019-03-30T16:39:57.502Z,27.93
2019-03-30T16:42:31.007Z,36.03
2019-03-30T16:45:03.740Z,57.30
2019-03-30T16:47:37.898Z,56.10
2019-03-30T16:50:16.215Z,92.23
2019-03-30T16:52:48.201Z,83.00
2019-03-30T16:55:21.484Z,102.53
2019-03-30T16:57:54.659Z,95.70
2019-03-30T17:00:27.573Z,76.10
2019-03-30T17:03:00.865Z,60.50
2019-03-30T17:05:34.498Z,56.07
2019-03-30T17:08:05.749Z,66.10
2019-03-30T17:10:40.092Z,74.70
2019-03-30T17:13:09.994Z,81.43
2019-03-30T17:15:41.437Z,87.70
2019-03-30T17:18:13.048Z,87.53
2019-03-30T17:20:44.487Z,81.90
2019-03-30T17:23:15.978Z,71.00
2019-03-30T17:25:47.370Z,69.07
2019-03-30T17:28:17.558Z,67.67
2019-03-30T17:30:47.578Z,61.60
2019-03-30T17:33:18.686Z,56.63
2019-03-30T17:35:47.988Z,56.77
2019-03-30T17:38:20.085Z,62.07
2019-03-30T17:40:54.682Z,51.30
2019-03-30T17:43:27.259Z,49.30
2019-03-30T17:45:58.708Z,51.13
2019-03-30T17:48:30.999Z,52.60
2019-03-30T17:51:02.609Z,40.57
2019-03-30T17:53:34.937Z,34.90
2019-03-30T17:56:06.414Z,37.10
2019-03-30T17:58:38.550Z,46.50
2019-03-30T18:01:08.924Z,58.33
2019-03-30T18:03:41.398Z,57.27
2019-03-30T18:06:11.869Z,81.20
2019-03-30T18:08:44.821Z,105.17
2019-03-30T18:11:16.769Z,123.42
2019-03-30T18:13:51.370Z,135.47
2019-03-30T18:16:23.017Z,165.97
2019-03-30T18:18:53.431Z,232.97
2019-03-30T18:21:24.939Z,330.03
2019-03-30T18:23:57.754Z,341.90
2019-03-30T18:26:32.059Z,174.50
2019-03-30T18:29:02.693Z,372.17
2019-03-30T18:31:36.572Z,475.13
2019-03-30T18:34:11.368Z,463.13
2019-03-30T18:36:46.640Z,422.33
2019-03-30T18:39:20.739Z,393.50
2019-03-30T18:41:54.211Z,370.87
2019-03-30T18:44:26.312Z,334.13
2019-03-30T18:46:56.508Z,350.63
2019-03-30T18:49:29.548Z,390.17
2019-03-30T18:52:00.437Z,398.77
2019-03-30T18:54:32.663Z,338.10
2019-03-30T18:57:06.020Z,323.40
2019-03-30T18:59:39.920Z,265.40
2019-03-30T19:02:12.522Z,303.53
2019-03-30T19:04:42.510Z,291.07
2019-03-30T19:07:12.438Z,245.67
2019-03-30T19:09:42.571Z,215.70
2019-03-30T19:12:15.075Z,177.00
2019-03-30T19:14:49.440Z,185.70
2019-03-30T19:17:20.715Z,167.53
2019-03-30T19:19:56.295Z,148.03
2019-03-30T19:22:26.404Z,135.77
2019-03-30T19:24:57.354Z,135.80
2019-03-30T19:27:31.028Z,84.90
2019-03-30T19:30:02.598Z,37.70
2019-03-30T19:32:35.885Z,49.10
2019-03-30T19:35:11.339Z,47.37
2019-03-30T19:37:41.318Z,159.57
2019-03-30T19:40:12.159Z,197.73
2019-03-30T19:42:44.712Z,109.00
2019-03-30T19:45:16.730Z,101.17
2019-03-30T19:47:50.694Z,140.73
2019-03-30T19:50:20.692Z,126.93
2019-03-30T19:52:52.395Z,118.37
2019-03-30T19:55:23.612Z,162.05
2019-03-30T19:57:59.160Z,160.67
2019-03-30T20:00:33.041Z,161.17
2019-03-30T20:03:09.533Z,224.87
2019-03-30T20:05:44.600Z,169.33
2019-03-30T20:08:14.378Z,103.35
2019-03-30T20:10:47.776Z,140.27
2019-03-30T20:13:20.699Z,137.63
2019-03-30T20:15:52.809Z,66.30
2019-03-30T20:18:28.781Z,37.27
2019-03-30T20:21:00.893Z,43.03
2019-03-30T20:23:35.463Z,92.23
2019-03-30T20:26:07.384Z,64.10
2019-03-30T20:28:40.112Z,97.60
2019-03-30T20:31:16.538Z,70.83
2019-03-30T20:33:50.784Z,121.70
2019-03-30T20:36:22.053Z,136.97
2019-03-30T20:38:52.930Z,126.37
2019-03-30T20:41:25.598Z,122.70
2019-03-30T20:43:58.230Z,128.03
2019-03-30T20:46:29.617Z,148.30
2019-03-30T20:49:01.459Z,183.37
2019-03-30T20:51:32.736Z,209.30
2019-03-30T20:54:07.608Z,306.13
2019-03-30T20:56:39.868Z,239.83
2019-03-30T20:59:11.005Z,190.70
2019-03-30T21:04:31.229Z,168.97
2019-03-30T21:07:00.570Z,182.63
2019-03-30T21:09:33.742Z,154.87
2019-03-30T21:12:04.520Z,144.50
2019-03-30T21:14:34.363Z,139.00
2019-03-30T21:17:07.433Z,123.73
2019-03-30T21:19:39.297Z,123.63
2019-03-30T21:22:10.519Z,118.67
2019-03-30T21:24:44.247Z,134.53
2019-03-30T21:27:14.165Z,142.47
2019-03-30T21:29:54.596Z,127.17
2019-03-30T21:32:22.692Z,77.83
2019-03-30T21:34:54.106Z,99.10
2019-03-30T21:37:23.996Z,99.70
2019-03-30T21:39:55.517Z,105.97
2019-03-30T21:42:36.711Z,113.70
2019-03-30T21:45:11.116Z,113.50
2019-03-30T21:47:44.624Z,117.10
2019-03-30T21:50:18.969Z,116.60
2019-03-30T21:52:50.790Z,127.23
2019-03-30T21:55:22.301Z,113.60
2019-03-30T21:58:11.004Z,116.90
2019-03-30T22:00:43.248Z,111.33
2019-03-30T22:03:14.564Z,129.15
2019-03-30T22:05:49.690Z,132.87
2019-03-30T22:10:54.612Z,95.07
2019-03-30T22:13:28.891Z,48.87
2019-03-30T22:16:00.110Z,52.33
2019-03-30T22:18:35.138Z,55.67
2019-03-30T22:21:06.190Z,58.33
2019-03-30T22:23:38.176Z,54.37
2019-03-30T22:26:10.826Z,58.70
2019-03-30T22:28:42.107Z,57.33
2019-03-30T22:31:17.060Z,61.75
2019-03-30T22:33:49.423Z,62.00
2019-03-30T22:36:33.866Z,62.85
2019-03-30T22:39:04.950Z,65.97
2019-03-30T22:41:37.874Z,69.00
2019-03-30T22:44:10.465Z,82.73
2019-03-30T22:46:42.329Z,95.53
2019-03-30T22:49:15.225Z,96.07
2019-03-30T22:51:45.172Z,103.87
2019-03-30T22:54:17.723Z,122.67
2019-03-30T22:56:48.746Z,117.10
2019-03-30T22:59:18.745Z,119.33
2019-03-30T23:01:49.634Z,114.47
2019-03-30T23:04:23.547Z,104.58
2019-03-30T23:06:54.903Z,106.67
2019-03-30T23:09:25.034Z,111.37
2019-03-30T23:11:56.117Z,122.77
2019-03-30T23:14:27.035Z,126.23
2019-03-30T23:16:57.944Z,126.23
2019-03-30T23:19:29.275Z,136.63
2019-03-30T23:22:00.521Z,119.90
2019-03-30T23:24:30.418Z,93.57
2019-03-30T23:27:01.314Z,72.13
2019-03-30T23:29:34.280Z,101.23
2019-03-30T23:32:05.199Z,98.17
2019-03-30T23:34:34.458Z,97.07
2019-03-30T23:37:07.575Z,98.63
2019-03-30T23:39:38.746Z,99.53
2019-03-30T23:42:08.728Z,110.50
2019-03-30T23:44:43.395Z,134.77
2019-03-30T23:47:16.275Z,138.27
2019-03-30T23:49:49.986Z,124.30
2019-03-30T23:52:21.862Z,118.17
2019-03-30T23:54:53.169Z,91.92
2019-03-30T23:57:23.309Z,92.43
2019-03-30T23:59:54.698Z,96.83
